createdAt,value
2023-04-13T00:00:31.598Z,36.73
2023-04-13T00:01:35.378Z,36.72
2023-04-13T00:02:39.436Z,36.73
2023-04-13T00:03:45.249Z,36.83
2023-04-13T00:04:49.070Z,36.75
2023-04-13T00:05:53.484Z,36.85
2023-04-13T00:06:57.804Z,36.77
2023-04-13T00:08:01.691Z,36.90
2023-04-13T00:09:08.949Z,36.92
2023-04-13T00:10:12.803Z,36.76
2023-04-13T00:11:16.436Z,36.95
2023-04-13T00:12:20.089Z,36.98
2023-04-13T00:13:23.743Z,36.95
2023-04-13T00:14:27.564Z,37.00
2023-04-13T00:15:31.541Z,37.02
2023-04-13T00:16:35.255Z,37.00
2023-04-13T00:17:38.921Z,36.97
2023-04-13T00:18:44.280Z,37.01
2023-04-13T00:19:48.211Z,37.03
2023-04-13T00:20:51.889Z,37.00
2023-04-13T00:21:55.541Z,37.03
2023-04-13T00:22:59.228Z,37.05
2023-04-13T00:24:02.980Z,37.05
2023-04-13T00:25:07.842Z,37.05
2023-04-13T00:26:11.515Z,36.99
2023-04-13T00:27:15.100Z,37.00
2023-04-13T00:28:18.771Z,36.99
2023-04-13T00:29:22.508Z,37.13
2023-04-13T00:30:26.185Z,37.14
2023-04-13T00:31:29.933Z,37.11
2023-04-13T00:32:33.678Z,37.18
2023-04-13T00:33:37.407Z,36.95
2023-04-13T00:34:42.791Z,36.88
2023-04-13T00:35:46.460Z,37.02
2023-04-13T00:36:50.525Z,36.97
2023-04-13T00:37:54.695Z,37.13
2023-04-13T00:38:58.349Z,37.10
2023-04-13T00:40:02.307Z,37.21
2023-04-13T00:41:06.418Z,37.27
2023-04-13T00:42:10.315Z,37.25
2023-04-13T00:43:14.000Z,37.23
2023-04-13T00:44:17.914Z,37.25
2023-04-13T00:45:21.650Z,37.36
2023-04-13T00:46:25.490Z,37.42
2023-04-13T00:47:32.653Z,37.48
2023-04-13T00:48:36.342Z,37.46
2023-04-13T00:49:41.691Z,37.35
2023-04-13T00:50:45.543Z,37.37
2023-04-13T00:51:49.443Z,37.54
2023-04-13T00:52:53.170Z,37.56
2023-04-13T00:53:57.916Z,37.56
2023-04-13T00:55:02.009Z,37.57
2023-04-13T00:56:06.028Z,37.51
2023-04-13T00:57:09.801Z,37.41
2023-04-13T00:58:14.207Z,37.52
2023-04-13T00:59:17.907Z,37.50
2023-04-13T01:00:22.265Z,37.37
2023-04-13T01:01:26.080Z,37.53
2023-04-13T01:02:29.975Z,37.49
2023-04-13T01:03:33.670Z,37.47
2023-04-13T01:04:37.829Z,37.46
2023-04-13T01:05:50.426Z,37.41
2023-04-13T01:07:04.224Z,37.39
2023-04-13T01:08:16.916Z,37.46
2023-04-13T01:09:26.573Z,37.40
2023-04-13T01:10:36.064Z,37.55
2023-04-13T01:11:48.094Z,37.54
2023-04-13T01:13:00.393Z,37.54
2023-04-13T01:14:12.554Z,37.54
2023-04-13T01:15:17.816Z,37.54
2023-04-13T01:16:25.292Z,37.55
2023-04-13T01:18:54.100Z,37.65
2023-04-13T01:20:01.873Z,37.69
2023-04-13T01:21:11.518Z,37.72
2023-04-13T01:22:15.587Z,37.75
2023-04-13T01:23:28.759Z,37.79
2023-04-13T01:24:41.626Z,37.79
2023-04-13T01:25:52.221Z,37.78
2023-04-13T01:27:05.655Z,37.81
2023-04-13T01:28:13.301Z,37.77
2023-04-13T01:29:17.227Z,37.84
2023-04-13T01:30:22.183Z,37.85
2023-04-13T01:31:26.437Z,37.86
2023-04-13T01:32:30.430Z,37.84
2023-04-13T01:33:34.326Z,37.90
2023-04-13T01:34:39.265Z,37.88
2023-04-13T01:35:46.286Z,37.88
2023-04-13T01:36:53.834Z,37.92
2023-04-13T01:37:58.055Z,37.91
2023-04-13T01:39:01.796Z,37.80
2023-04-13T01:40:06.092Z,37.94
2023-04-13T01:41:09.755Z,37.98
2023-04-13T01:42:13.493Z,37.86
2023-04-13T01:43:19.435Z,37.94
2023-04-13T01:44:23.070Z,37.94
2023-04-13T01:45:28.711Z,37.97
2023-04-13T01:46:34.829Z,38.00
2023-04-13T01:47:43.144Z,37.82
2023-04-13T01:48:52.618Z,37.78
2023-04-13T01:50:00.692Z,37.96
2023-04-13T01:51:09.650Z,38.04
2023-04-13T01:52:14.180Z,38.09
2023-04-13T01:53:20.790Z,38.12
2023-04-13T01:54:28.505Z,38.12
2023-04-13T01:55:32.701Z,38.03
2023-04-13T01:56:39.973Z,38.14
2023-04-13T01:57:45.020Z,38.04
2023-04-13T01:58:52.532Z,38.11
2023-04-13T01:59:56.192Z,38.12
2023-04-13T02:00:59.913Z,38.18
2023-04-13T02:02:03.555Z,38.19
2023-04-13T02:03:08.796Z,38.17
2023-04-13T02:04:12.676Z,38.28
2023-04-13T02:05:16.398Z,38.34
2023-04-13T02:06:25.245Z,38.24
2023-04-13T02:07:28.872Z,38.40
2023-04-13T02:08:33.555Z,38.46
2023-04-13T02:09:37.316Z,38.51
2023-04-13T02:10:40.922Z,38.49
2023-04-13T02:11:44.613Z,38.43
2023-04-13T02:12:48.386Z,38.35
2023-04-13T02:13:53.725Z,38.46
2023-04-13T02:14:57.417Z,38.50
2023-04-13T02:16:01.178Z,38.54
2023-04-13T02:17:04.800Z,38.48
2023-04-13T02:18:08.865Z,38.04
2023-04-13T02:19:12.545Z,37.97
2023-04-13T02:20:16.328Z,38.03
2023-04-13T02:21:19.986Z,38.16
2023-04-13T02:22:23.868Z,38.25
2023-04-13T02:23:27.603Z,38.28
2023-04-13T02:24:31.278Z,38.48
2023-04-13T02:25:35.130Z,38.41
2023-04-13T02:26:38.789Z,38.31
2023-04-13T02:27:42.827Z,38.46
2023-04-13T02:28:52.938Z,38.35
2023-04-13T02:29:56.607Z,38.37
2023-04-13T02:31:00.275Z,38.50
2023-04-13T02:32:04.169Z,38.53
2023-04-13T02:33:07.876Z,38.59
2023-04-13T02:34:14.082Z,38.60
2023-04-13T02:35:17.764Z,38.48
2023-04-13T02:36:21.932Z,38.52
2023-04-13T02:37:25.690Z,38.53
2023-04-13T02:38:29.602Z,38.65
2023-04-13T02:39:33.216Z,38.60
2023-04-13T02:40:36.829Z,38.55
2023-04-13T02:41:40.539Z,38.64
2023-04-13T02:42:44.249Z,38.62
2023-04-13T02:43:47.898Z,38.66
2023-04-13T02:44:53.243Z,38.71
2023-04-13T02:45:57.569Z,38.55
2023-04-13T02:47:01.301Z,38.47
2023-04-13T02:48:05.087Z,38.37
2023-04-13T02:49:08.684Z,38.61
2023-04-13T02:50:12.997Z,38.55
2023-04-13T02:51:16.654Z,38.54
2023-04-13T02:52:20.324Z,38.69
2023-04-13T02:53:24.117Z,38.85
2023-04-13T02:54:27.859Z,38.99
2023-04-13T02:55:31.473Z,38.85
2023-04-13T02:56:35.195Z,38.96
2023-04-13T02:57:39.043Z,39.07
2023-04-13T02:58:45.612Z,39.07
2023-04-13T02:59:49.516Z,38.94
2023-04-13T03:00:54.781Z,38.92
2023-04-13T03:01:58.422Z,38.97
2023-04-13T03:03:02.504Z,39.02
2023-04-13T03:04:06.602Z,39.05
2023-04-13T03:05:11.147Z,39.11
2023-04-13T03:06:14.896Z,39.06
2023-04-13T03:07:18.576Z,39.12
2023-04-13T03:08:22.264Z,39.12
2023-04-13T03:09:26.252Z,39.22
2023-04-13T03:10:31.100Z,39.22
2023-04-13T03:11:34.794Z,39.19
2023-04-13T03:12:38.844Z,39.26
2023-04-13T03:13:42.499Z,39.27
2023-04-13T03:14:48.476Z,39.25
2023-04-13T03:15:53.838Z,39.10
2023-04-13T03:17:03.410Z,38.88
2023-04-13T03:18:07.255Z,38.88
2023-04-13T03:19:11.025Z,38.94
2023-04-13T03:20:14.767Z,38.97
2023-04-13T03:21:18.416Z,39.03
2023-04-13T03:22:22.162Z,39.10
2023-04-13T03:23:25.811Z,39.14
2023-04-13T03:24:29.445Z,39.10
2023-04-13T03:25:34.094Z,39.17
2023-04-13T03:26:37.862Z,39.19
2023-04-13T03:27:41.516Z,39.09
2023-04-13T03:28:47.733Z,39.17
2023-04-13T03:29:51.532Z,39.16
2023-04-13T03:30:56.866Z,39.16
2023-04-13T03:32:00.680Z,39.14
2023-04-13T03:33:04.475Z,39.05
2023-04-13T03:34:08.101Z,38.79
2023-04-13T03:35:11.704Z,39.08
2023-04-13T03:36:15.551Z,38.99
2023-04-13T03:37:19.213Z,39.11
2023-04-13T03:38:22.956Z,39.12
2023-04-13T03:39:26.639Z,39.16
2023-04-13T03:40:30.353Z,39.28
2023-04-13T03:41:34.034Z,39.37
2023-04-13T03:42:37.824Z,39.32
2023-04-13T03:43:44.896Z,39.29
2023-04-13T03:44:48.526Z,39.30
2023-04-13T03:45:52.284Z,39.31
2023-04-13T03:46:57.716Z,39.30
2023-04-13T03:48:01.581Z,39.31
2023-04-13T03:49:08.535Z,39.35
2023-04-13T03:50:12.459Z,39.00
2023-04-13T03:51:16.249Z,39.25
2023-04-13T03:52:20.073Z,39.30
2023-04-13T03:53:23.802Z,39.40
2023-04-13T03:54:27.499Z,39.51
2023-04-13T03:55:31.159Z,39.57
2023-04-13T03:56:34.879Z,39.37
2023-04-13T03:57:38.502Z,39.47
2023-04-13T03:58:42.179Z,39.51
2023-04-13T03:59:45.895Z,39.45
2023-04-13T04:00:49.834Z,39.47
2023-04-13T04:01:53.525Z,39.61
2023-04-13T04:02:58.953Z,39.65
2023-04-13T04:04:03.357Z,39.64
2023-04-13T04:05:07.913Z,39.65
2023-04-13T04:06:39.368Z,39.67
2023-04-13T04:07:43.001Z,39.45
2023-04-13T04:08:57.055Z,39.54
2023-04-13T04:10:00.734Z,39.58
2023-04-13T04:11:04.686Z,39.69
2023-04-13T04:12:08.912Z,39.74
2023-04-13T04:13:12.568Z,39.70
2023-04-13T04:14:16.221Z,39.77
2023-04-13T04:15:19.969Z,39.84
2023-04-13T04:16:23.675Z,39.92
2023-04-13T04:17:27.494Z,40.03
2023-04-13T04:18:33.828Z,39.80
2023-04-13T04:19:37.562Z,39.67
2023-04-13T04:20:41.209Z,39.69
2023-04-13T04:21:44.903Z,39.91
2023-04-13T04:22:48.687Z,39.95
2023-04-13T04:23:52.375Z,40.02
2023-04-13T04:24:56.099Z,40.04
2023-04-13T04:26:15.482Z,40.11
2023-04-13T04:27:19.248Z,40.22
2023-04-13T04:28:25.691Z,40.29
2023-04-13T04:29:29.748Z,40.11
2023-04-13T04:30:33.495Z,40.28
2023-04-13T04:31:37.568Z,40.18
2023-04-13T04:32:59.042Z,39.97
2023-04-13T04:34:04.527Z,40.03
2023-04-13T04:35:09.383Z,40.26
2023-04-13T04:36:13.314Z,40.35
2023-04-13T04:37:20.561Z,39.86
2023-04-13T04:38:55.381Z,40.16
2023-04-13T04:39:59.043Z,40.42
2023-04-13T04:41:02.725Z,40.41
2023-04-13T04:42:06.586Z,40.41
2023-04-13T04:43:10.278Z,40.53
2023-04-13T04:44:14.807Z,40.48
2023-04-13T04:45:18.595Z,40.36
2023-04-13T04:46:22.429Z,40.46
2023-04-13T04:47:26.173Z,40.04
2023-04-13T04:48:29.866Z,40.44
2023-04-13T04:49:35.231Z,40.39
2023-04-13T04:50:39.040Z,40.20
2023-04-13T04:51:42.751Z,40.45
2023-04-13T04:52:46.518Z,40.32
2023-04-13T04:53:50.271Z,40.37
2023-04-13T04:54:54.663Z,40.29
2023-04-13T04:55:58.321Z,40.38
2023-04-13T04:57:02.215Z,40.39
2023-04-13T04:58:05.912Z,40.49
2023-04-13T04:59:10.597Z,40.36
2023-04-13T05:00:16.721Z,40.23
2023-04-13T05:01:20.740Z,40.33
2023-04-13T05:02:24.478Z,40.31
2023-04-13T05:03:28.277Z,40.54
2023-04-13T05:04:31.960Z,40.66
2023-04-13T05:05:37.432Z,40.75
2023-04-13T05:06:41.356Z,40.77
2023-04-13T05:07:45.178Z,40.73
2023-04-13T05:08:48.870Z,40.78
2023-04-13T05:09:52.612Z,40.49
2023-04-13T05:10:56.393Z,40.79
2023-04-13T05:12:00.220Z,40.92
2023-04-13T05:13:03.978Z,40.62
2023-04-13T05:14:07.707Z,40.54
2023-04-13T05:15:12.123Z,40.52
2023-04-13T05:16:15.861Z,40.71
2023-04-13T05:17:19.603Z,40.76
2023-04-13T05:18:23.240Z,40.56
2023-04-13T05:19:26.991Z,40.61
2023-04-13T05:20:30.669Z,40.79
2023-04-13T05:21:36.091Z,40.86
2023-04-13T05:22:39.783Z,40.94
2023-04-13T05:23:44.292Z,40.94
2023-04-13T05:24:48.036Z,40.51
2023-04-13T05:25:51.837Z,40.44
2023-04-13T05:26:56.714Z,40.26
2023-04-13T05:28:00.309Z,40.56
2023-04-13T05:29:04.883Z,40.58
2023-04-13T05:30:09.786Z,40.67
2023-04-13T05:31:13.593Z,40.73
2023-04-13T05:32:17.344Z,40.50
2023-04-13T05:33:21.062Z,40.40
2023-04-13T05:34:24.790Z,40.64
2023-04-13T05:35:28.426Z,40.67
2023-04-13T05:36:32.197Z,40.33
2023-04-13T05:37:37.664Z,40.51
2023-04-13T05:38:41.307Z,40.46
2023-04-13T05:39:45.098Z,40.41
2023-04-13T05:40:48.813Z,40.60
2023-04-13T05:41:52.569Z,40.80
2023-04-13T05:42:56.418Z,40.93
2023-04-13T05:44:00.188Z,40.95
2023-04-13T05:45:03.937Z,40.87
2023-04-13T05:46:08.230Z,40.85
2023-04-13T05:47:12.010Z,41.08
2023-04-13T05:48:15.707Z,41.03
2023-04-13T05:49:19.417Z,41.10
2023-04-13T05:50:23.086Z,41.18
2023-04-13T05:51:26.747Z,41.15
2023-04-13T05:52:30.476Z,41.23
2023-04-13T05:53:35.862Z,41.30
2023-04-13T05:54:39.470Z,41.08
2023-04-13T05:55:45.200Z,41.13
2023-04-13T05:56:50.345Z,41.08
2023-04-13T05:57:54.234Z,41.19
2023-04-13T05:58:58.126Z,40.92
2023-04-13T06:00:02.334Z,40.91
2023-04-13T06:01:09.528Z,41.12
2023-04-13T06:02:13.338Z,41.06
2023-04-13T06:03:17.461Z,41.13
2023-04-13T06:04:21.560Z,41.20
2023-04-13T06:05:25.515Z,40.90
2023-04-13T06:06:29.332Z,40.98
2023-04-13T06:07:33.019Z,41.02
2023-04-13T06:08:38.343Z,40.92
2023-04-13T06:09:42.043Z,40.76
2023-04-13T06:10:45.748Z,40.87
2023-04-13T06:11:49.379Z,41.17
2023-04-13T06:12:53.179Z,41.14
2023-04-13T06:13:59.470Z,41.17
2023-04-13T06:15:04.021Z,41.22
2023-04-13T06:16:08.632Z,41.38
2023-04-13T06:17:12.360Z,41.35
2023-04-13T06:18:16.064Z,41.29
2023-04-13T06:19:19.719Z,41.45
2023-04-13T06:20:23.485Z,40.96
2023-04-13T06:21:27.179Z,41.26
2023-04-13T06:22:30.853Z,41.12
2023-04-13T06:23:34.573Z,40.99
2023-04-13T06:24:42.258Z,41.13
2023-04-13T06:25:46.249Z,41.33
2023-04-13T06:26:50.053Z,41.45
2023-04-13T06:27:55.141Z,41.40
2023-04-13T06:28:59.431Z,41.32
2023-04-13T06:30:03.401Z,41.27
2023-04-13T06:31:07.481Z,41.35
2023-04-13T06:32:11.332Z,41.42
2023-04-13T06:33:14.965Z,41.41
2023-04-13T06:34:18.592Z,41.67
2023-04-13T06:35:22.270Z,41.48
2023-04-13T06:36:25.956Z,41.63
2023-04-13T06:37:29.707Z,41.69
2023-04-13T06:38:33.316Z,41.58
2023-04-13T06:39:38.706Z,40.81
2023-04-13T06:40:42.342Z,41.35
2023-04-13T06:41:45.983Z,41.26
2023-04-13T06:42:49.679Z,41.32
2023-04-13T06:43:53.484Z,41.36
2023-04-13T06:44:57.199Z,41.25
2023-04-13T06:46:01.149Z,41.50
2023-04-13T06:47:04.889Z,41.47
2023-04-13T06:48:08.687Z,41.66
2023-04-13T06:49:12.407Z,41.66
2023-04-13T06:50:16.822Z,41.16
2023-04-13T06:51:20.530Z,41.42
2023-04-13T06:52:24.229Z,41.37
2023-04-13T06:53:28.013Z,41.36
2023-04-13T06:54:31.691Z,41.52
2023-04-13T06:55:37.009Z,41.36
2023-04-13T06:56:40.812Z,41.65
2023-04-13T06:57:44.942Z,41.74
2023-04-13T06:58:48.731Z,41.81
2023-04-13T06:59:52.425Z,41.67
2023-04-13T07:00:56.100Z,41.87
2023-04-13T07:02:00.035Z,41.75
2023-04-13T07:03:04.220Z,41.41
2023-04-13T07:04:08.141Z,41.55
2023-04-13T07:05:12.040Z,41.56
2023-04-13T07:06:15.777Z,41.68
2023-04-13T07:07:19.540Z,41.81
2023-04-13T07:08:23.240Z,41.75
2023-04-13T07:09:26.998Z,41.15
2023-04-13T07:10:30.774Z,41.54
2023-04-13T07:11:36.095Z,41.68
2023-04-13T07:12:39.698Z,41.72
2023-04-13T07:13:43.338Z,41.61
2023-04-13T07:14:46.999Z,41.42
2023-04-13T07:15:50.726Z,41.58
2023-04-13T07:16:54.431Z,41.55
2023-04-13T07:17:58.199Z,41.42
2023-04-13T07:19:01.976Z,41.25
2023-04-13T07:20:06.318Z,41.51
2023-04-13T07:21:10.093Z,41.77
2023-04-13T07:22:13.786Z,41.49
2023-04-13T07:23:17.457Z,41.35
2023-04-13T07:24:21.174Z,41.42
2023-04-13T07:25:24.976Z,41.10
2023-04-13T07:26:28.681Z,41.33
2023-04-13T07:27:35.122Z,41.23
2023-04-13T07:28:39.170Z,41.34
2023-04-13T07:29:42.981Z,41.56
2023-04-13T07:30:47.131Z,41.59
2023-04-13T07:31:50.824Z,41.81
2023-04-13T07:32:54.711Z,41.78
2023-04-13T07:33:58.430Z,41.97
2023-04-13T07:35:02.528Z,41.83
2023-04-13T07:36:07.390Z,41.73
2023-04-13T07:37:10.983Z,41.79
2023-04-13T07:38:14.659Z,41.74
2023-04-13T07:39:18.426Z,41.85
2023-04-13T07:40:22.725Z,41.81
2023-04-13T07:41:26.366Z,41.90
2023-04-13T07:42:29.992Z,41.72
2023-04-13T07:43:35.308Z,41.46
2023-04-13T07:44:39.029Z,41.80
2023-04-13T07:45:42.693Z,41.83
2023-04-13T07:46:46.367Z,41.73
2023-04-13T07:47:50.673Z,41.91
2023-04-13T07:48:54.496Z,41.87
2023-04-13T07:49:58.228Z,41.82
2023-04-13T07:51:01.994Z,41.38
2023-04-13T07:52:06.023Z,41.59
2023-04-13T07:53:09.750Z,41.46
2023-04-13T07:54:15.144Z,41.63
2023-04-13T07:55:20.052Z,41.48
2023-04-13T07:56:23.728Z,41.80
2023-04-13T07:57:27.357Z,41.89
2023-04-13T07:58:31.125Z,42.00
2023-04-13T07:59:36.385Z,42.01
2023-04-13T08:00:40.006Z,41.82
2023-04-13T08:01:43.771Z,41.84
2023-04-13T08:02:47.701Z,41.98
2023-04-13T08:03:54.562Z,41.91
2023-04-13T08:04:58.436Z,41.78
2023-04-13T08:06:02.308Z,41.72
2023-04-13T08:07:06.173Z,41.88
2023-04-13T08:08:09.965Z,41.88
2023-04-13T08:09:13.767Z,41.95
2023-04-13T08:10:20.393Z,42.03
2023-04-13T08:11:24.149Z,41.94
2023-04-13T08:12:27.793Z,42.11
2023-04-13T08:13:31.739Z,42.16
2023-04-13T08:14:37.053Z,42.09
2023-04-13T08:15:40.775Z,42.15
2023-04-13T08:16:44.488Z,42.08
2023-04-13T08:17:48.678Z,42.15
2023-04-13T08:18:52.333Z,42.23
2023-04-13T08:19:56.073Z,42.22
2023-04-13T08:20:59.971Z,42.01
2023-04-13T08:22:03.731Z,42.03
2023-04-13T08:23:07.368Z,41.77
2023-04-13T08:24:11.000Z,41.78
2023-04-13T08:25:14.732Z,41.86
2023-04-13T08:26:19.614Z,41.84
2023-04-13T08:27:23.212Z,41.80
2023-04-13T08:28:27.155Z,41.90
2023-04-13T08:29:30.889Z,41.80
2023-04-13T08:30:36.756Z,41.92
2023-04-13T08:31:40.765Z,42.08
2023-04-13T08:32:44.513Z,42.00
2023-04-13T08:33:48.198Z,42.06
2023-04-13T08:34:52.045Z,42.02
2023-04-13T08:35:56.121Z,41.92
2023-04-13T08:36:59.921Z,42.20
2023-04-13T08:38:04.184Z,42.22
2023-04-13T08:39:08.020Z,42.13
2023-04-13T08:40:12.368Z,42.13
2023-04-13T08:41:18.453Z,42.13
2023-04-13T08:42:23.704Z,42.21
2023-04-13T08:43:29.266Z,42.28
2023-04-13T08:44:34.413Z,42.15
2023-04-13T08:45:42.481Z,42.28
2023-04-13T08:46:47.228Z,42.20
2023-04-13T08:47:51.061Z,41.66
2023-04-13T08:48:59.794Z,41.88
2023-04-13T08:50:03.839Z,42.04
2023-04-13T08:51:08.109Z,42.13
2023-04-13T08:52:13.376Z,41.97
2023-04-13T08:53:18.956Z,42.13
2023-04-13T08:54:22.653Z,41.89
2023-04-13T08:55:26.357Z,42.08
2023-04-13T08:56:44.398Z,42.17
2023-04-13T08:57:51.576Z,41.82
2023-04-13T08:58:59.494Z,41.76
2023-04-13T09:00:05.104Z,41.79
2023-04-13T09:01:10.839Z,41.50
2023-04-13T09:02:15.183Z,41.70
2023-04-13T09:03:24.966Z,41.72
2023-04-13T09:04:32.556Z,41.71
2023-04-13T09:05:40.699Z,41.80
2023-04-13T09:06:46.779Z,41.50
2023-04-13T09:07:51.405Z,41.53
2023-04-13T09:08:55.845Z,41.46
2023-04-13T09:10:01.131Z,41.46
2023-04-13T09:11:04.926Z,41.71
2023-04-13T09:12:08.681Z,41.78
2023-04-13T09:13:12.345Z,41.73
2023-04-13T09:14:18.998Z,41.79
2023-04-13T09:15:23.529Z,41.78
2023-04-13T09:16:38.760Z,41.63
2023-04-13T09:17:46.570Z,41.29
2023-04-13T09:18:51.778Z,41.54
2023-04-13T09:20:11.578Z,41.70
2023-04-13T09:21:15.277Z,41.66
2023-04-13T09:22:24.303Z,40.96
2023-04-13T09:23:28.125Z,41.09
2023-04-13T09:24:43.775Z,41.40
2023-04-13T09:25:55.424Z,41.58
2023-04-13T09:26:59.220Z,41.58
2023-04-13T09:28:05.330Z,41.44
2023-04-13T09:29:11.747Z,41.45
2023-04-13T09:30:18.889Z,41.34
2023-04-13T09:31:22.761Z,41.52
2023-04-13T09:32:29.466Z,41.19
2023-04-13T09:33:47.664Z,41.18
2023-04-13T09:35:08.152Z,41.34
2023-04-13T09:36:23.720Z,41.32
2023-04-13T09:37:33.719Z,41.09
2023-04-13T09:38:37.440Z,41.16
2023-04-13T09:39:41.369Z,41.08
2023-04-13T09:40:54.464Z,41.24
2023-04-13T09:42:11.430Z,41.16
2023-04-13T09:43:16.901Z,41.13
2023-04-13T09:44:21.456Z,41.17
2023-04-13T09:45:25.767Z,41.36
2023-04-13T09:46:32.601Z,41.30
2023-04-13T09:47:41.177Z,41.21
2023-04-13T09:48:45.046Z,41.45
2023-04-13T09:49:48.656Z,41.47
2023-04-13T09:51:02.273Z,41.21
2023-04-13T09:52:06.982Z,41.23
2023-04-13T09:53:10.762Z,41.21
2023-04-13T09:54:22.072Z,41.00
2023-04-13T09:55:25.813Z,41.04
2023-04-13T09:56:29.437Z,41.10
2023-04-13T09:57:37.128Z,41.10
2023-04-13T09:58:46.820Z,41.17
2023-04-13T09:59:51.225Z,41.18
2023-04-13T10:00:57.679Z,41.23
2023-04-13T10:02:06.661Z,41.17
2023-04-13T10:03:17.153Z,41.16
2023-04-13T10:04:21.133Z,41.15
2023-04-13T10:05:26.926Z,41.07
2023-04-13T10:06:32.172Z,40.92
2023-04-13T10:07:36.232Z,40.93
2023-04-13T10:08:40.536Z,40.87
2023-04-13T10:09:44.344Z,40.72
2023-04-13T10:10:51.419Z,40.68
2023-04-13T10:11:56.922Z,40.80
2023-04-13T10:13:02.672Z,40.79
2023-04-13T10:14:12.763Z,40.56
2023-04-13T10:15:29.770Z,40.35
2023-04-13T10:17:02.441Z,40.32
2023-04-13T10:18:17.900Z,40.38
2023-04-13T10:19:24.716Z,40.24
2023-04-13T10:20:29.865Z,40.25
2023-04-13T10:21:35.422Z,40.34
2023-04-13T10:22:40.210Z,40.39
2023-04-13T10:23:44.025Z,40.49
2023-04-13T10:24:48.120Z,40.32
2023-04-13T10:25:52.720Z,40.46
2023-04-13T10:26:56.685Z,40.49
2023-04-13T10:28:01.154Z,40.37
2023-04-13T10:29:05.527Z,40.39
2023-04-13T10:30:23.447Z,40.08
2023-04-13T20:01:59.810Z,36.67
2023-04-13T20:03:03.752Z,36.68
2023-04-13T20:04:07.939Z,36.54
2023-04-13T20:05:11.822Z,36.74
2023-04-13T20:06:15.587Z,36.75
2023-04-13T20:07:19.420Z,36.82
2023-04-13T20:08:23.081Z,36.76
2023-04-13T20:09:26.764Z,36.82
2023-04-13T20:10:30.505Z,36.82
2023-04-13T20:11:35.870Z,36.72
2023-04-13T20:12:39.687Z,36.69
2023-04-13T20:13:43.409Z,36.60
2023-04-13T20:14:47.158Z,36.76
2023-04-13T20:15:50.884Z,36.60
2023-04-13T20:16:54.713Z,36.69
2023-04-13T20:18:00.117Z,36.75
2023-04-13T20:19:03.855Z,36.80
2023-04-13T20:20:08.310Z,36.86
2023-04-13T20:21:12.124Z,36.86
2023-04-13T20:22:15.699Z,36.86
2023-04-13T20:23:19.342Z,36.80
2023-04-13T20:24:22.971Z,36.71
2023-04-13T20:25:26.883Z,36.64
2023-04-13T20:26:31.431Z,36.79
2023-04-13T20:27:35.055Z,36.68
2023-04-13T20:28:38.736Z,36.76
2023-04-13T20:29:42.427Z,36.58
2023-04-13T20:30:46.110Z,36.75
2023-04-13T20:31:49.975Z,36.75
2023-04-13T20:32:53.728Z,36.82
2023-04-13T20:33:59.331Z,36.90
2023-04-13T20:35:03.229Z,36.92
2023-04-13T20:36:07.058Z,36.93
2023-04-13T20:37:10.698Z,36.96
2023-04-13T20:38:14.368Z,36.98
2023-04-13T20:39:18.095Z,36.99
2023-04-13T20:40:21.926Z,37.01
2023-04-13T20:41:25.597Z,37.01
2023-04-13T20:42:31.061Z,37.02
2023-04-13T20:43:34.715Z,37.01
2023-04-13T20:44:38.379Z,37.04
2023-04-13T20:45:42.007Z,36.83
2023-04-13T20:46:45.750Z,36.92
2023-04-13T20:47:50.162Z,36.84
2023-04-13T20:48:53.966Z,36.89
2023-04-13T20:49:59.228Z,36.92
2023-04-13T20:51:02.909Z,36.90
2023-04-13T20:52:06.607Z,36.90
2023-04-13T20:53:16.358Z,36.95
2023-04-13T20:54:20.209Z,36.92
2023-04-13T20:55:24.200Z,36.79
2023-04-13T20:56:27.849Z,36.89
2023-04-13T20:57:32.037Z,36.90
2023-04-13T20:58:36.067Z,36.92
2023-04-13T20:59:39.829Z,36.96
2023-04-13T21:00:43.529Z,36.91
2023-04-13T21:01:47.372Z,36.90
2023-04-13T21:02:51.340Z,36.83
2023-04-13T21:03:55.143Z,36.89
2023-04-13T21:05:00.516Z,36.79
2023-04-13T21:06:04.229Z,36.90
2023-04-13T21:07:07.923Z,36.82
2023-04-13T21:08:12.466Z,36.64
2023-04-13T21:09:16.171Z,36.60
2023-04-13T21:10:20.102Z,36.71
2023-04-13T21:11:23.713Z,36.77
2023-04-13T21:12:28.380Z,36.81
2023-04-13T21:13:32.169Z,36.88
2023-04-13T21:14:35.865Z,36.88
2023-04-13T21:15:39.627Z,36.92
2023-04-13T21:16:43.353Z,36.94
2023-04-13T21:17:47.071Z,36.59
2023-04-13T21:18:50.700Z,36.92
2023-04-13T21:19:54.494Z,36.94
2023-04-13T21:20:59.889Z,36.59
2023-04-13T21:22:03.493Z,36.85
2023-04-13T21:23:07.230Z,36.86
2023-04-13T21:24:11.125Z,36.86
2023-04-13T21:25:14.812Z,36.68
2023-04-13T21:26:18.640Z,36.86
2023-04-13T21:27:22.358Z,36.89
2023-04-13T21:28:26.208Z,36.94
2023-04-13T21:29:29.899Z,36.97
2023-04-13T21:30:33.614Z,36.97
2023-04-13T21:31:37.721Z,37.01
2023-04-13T21:32:41.490Z,37.02
2023-04-13T21:33:45.994Z,37.02
2023-04-13T21:34:51.947Z,36.86
2023-04-13T21:35:55.617Z,36.89
2023-04-13T21:37:00.950Z,36.78
2023-04-13T21:38:04.637Z,36.68
2023-04-13T21:39:08.233Z,36.94
2023-04-13T21:40:12.419Z,36.94
2023-04-13T21:41:16.437Z,36.92
2023-04-13T21:42:22.533Z,36.95
2023-04-13T21:43:26.477Z,36.80
2023-04-13T21:44:31.023Z,36.81
2023-04-13T21:45:34.825Z,36.85
2023-04-13T21:46:38.488Z,36.84
2023-04-13T21:47:42.206Z,36.86
2023-04-13T21:48:45.998Z,36.90
2023-04-13T21:49:49.712Z,36.94
2023-04-13T21:50:53.417Z,36.96
2023-04-13T21:51:57.036Z,36.94
2023-04-13T21:53:02.737Z,36.96
2023-04-13T21:54:06.572Z,36.82
2023-04-13T21:55:10.848Z,36.82
2023-04-13T21:56:14.603Z,36.84
2023-04-13T21:57:18.291Z,36.77
2023-04-13T21:58:22.095Z,36.82
2023-04-13T21:59:25.757Z,36.83
2023-04-13T22:00:29.643Z,36.75
2023-04-13T22:01:33.392Z,36.72
2023-04-13T22:02:37.167Z,36.80
2023-04-13T22:03:42.460Z,36.80
2023-04-13T22:04:46.245Z,36.80
2023-04-13T22:05:49.995Z,36.83
2023-04-13T22:06:53.662Z,36.77
2023-04-13T22:07:57.375Z,36.80
2023-04-13T22:09:02.981Z,36.79
2023-04-13T22:10:07.577Z,36.83
2023-04-13T22:11:11.419Z,36.85
2023-04-13T22:12:15.062Z,36.87
2023-04-13T22:13:18.678Z,36.90
2023-04-13T22:14:22.419Z,36.83
2023-04-13T22:15:26.128Z,36.81
2023-04-13T22:16:29.738Z,36.83
2023-04-13T22:17:33.439Z,36.82
2023-04-13T22:18:37.138Z,36.77
2023-04-13T22:19:40.770Z,36.80
2023-04-13T22:20:44.454Z,36.79
2023-04-13T22:21:48.140Z,36.84
2023-04-13T22:22:51.813Z,36.80
2023-04-13T22:23:55.562Z,36.71
2023-04-13T22:25:00.930Z,36.51
2023-04-13T22:26:04.780Z,36.58
2023-04-13T22:27:08.472Z,36.66
2023-04-13T22:28:12.155Z,36.74
2023-04-13T22:29:16.189Z,36.80
2023-04-13T22:30:20.060Z,36.83
2023-04-13T22:31:23.775Z,36.86
2023-04-13T22:32:29.146Z,36.73
2023-04-13T22:33:32.863Z,36.78
2023-04-13T22:34:36.598Z,36.74
2023-04-13T22:35:40.280Z,36.74
2023-04-13T22:36:43.909Z,36.77
2023-04-13T22:37:47.541Z,36.77
2023-04-13T22:38:51.395Z,36.79
2023-04-13T22:39:55.142Z,36.79
2023-04-13T22:41:05.900Z,36.74
2023-04-13T22:42:09.541Z,36.76
2023-04-13T22:43:13.154Z,36.71
2023-04-13T22:44:16.833Z,36.73
2023-04-13T22:45:20.776Z,36.68
2023-04-13T22:46:24.582Z,36.52
2023-04-13T22:47:28.369Z,36.48
2023-04-13T22:48:32.177Z,36.53
2023-04-13T22:49:35.928Z,36.62
2023-04-13T22:50:39.857Z,36.66
2023-04-13T22:51:43.531Z,36.66
2023-04-13T22:52:47.325Z,36.56
2023-04-13T22:53:51.017Z,36.47
2023-04-13T22:54:55.360Z,36.46
2023-04-13T22:56:00.940Z,36.56
2023-04-13T22:57:05.302Z,36.60
2023-04-13T22:58:09.188Z,36.65
2023-04-13T22:59:12.837Z,36.64
2023-04-13T23:00:17.022Z,36.57
2023-04-13T23:01:20.737Z,36.64
2023-04-13T23:02:24.578Z,36.60
2023-04-13T23:03:28.529Z,36.67
2023-04-13T23:04:32.488Z,36.70
2023-04-13T23:05:36.256Z,36.68
2023-04-13T23:06:39.969Z,36.59
2023-04-13T23:07:43.596Z,36.53
2023-04-13T23:08:47.250Z,36.47
2023-04-13T23:09:52.555Z,36.57
2023-04-13T23:10:56.229Z,36.65
2023-04-13T23:12:01.536Z,36.58
2023-04-13T23:13:05.291Z,36.74
2023-04-13T23:14:08.990Z,36.72
2023-04-13T23:15:13.623Z,36.68
2023-04-13T23:16:17.309Z,36.74
2023-04-13T23:17:21.010Z,36.79
2023-04-13T23:18:24.781Z,36.61
2023-04-13T23:19:28.444Z,36.67
2023-04-13T23:20:32.790Z,36.57
2023-04-13T23:21:36.496Z,36.59
2023-04-13T23:22:40.206Z,36.64
2023-04-13T23:23:43.896Z,36.64
2023-04-13T23:24:47.634Z,36.69
2023-04-13T23:25:51.340Z,36.64
2023-04-13T23:26:55.105Z,36.73